Time;durP1;ratioP1;P1;durP2;ratioP2;P2;SDS_P1;SDS_P2;PMS_P1;PMS_P2;Temp;Humidity;BMP_temperature;BMP_pressure;BME280_temperature;BME280_humidity;BME280_pressure;Samples;Min_cycle;Max_cycle;Signal;HPM_P1;HPM_P2
2021/01/29 00:00:13;;;;;;;16.52;11.90;;;1.20;99.90;;;;;;5016876;28;20042;-89
2021/01/29 00:02:40;;;;;;;22.85;13.25;;;1.30;99.90;;;;;;5015169;28;20141;-89
2021/01/29 00:05:08;;;;;;;20.77;12.88;;;1.20;99.90;;;;;;5018108;28;20054;-89
2021/01/29 00:07:35;;;;;;;21.27;12.57;;;1.30;99.90;;;;;;5017821;28;20104;-89
2021/01/29 00:10:03;;;;;;;19.08;12.38;;;1.30;99.90;;;;;;5015113;28;20068;-89
2021/01/29 00:12:30;;;;;;;21.38;13.25;;;1.20;99.90;;;;;;5014781;28;20109;-89
2021/01/29 00:14:56;;;;;;;26.58;13.35;;;1.30;99.90;;;;;;5015534;28;20077;-89
2021/01/29 00:17:22;;;;;;;27.05;14.07;;;1.30;99.90;;;;;;5014618;28;20053;-89
2021/01/29 00:19:49;;;;;;;20.40;12.30;;;1.10;99.90;;;;;;5014694;28;20049;-90
2021/01/29 00:22:15;;;;;;;24.73;14.25;;;1.30;99.90;;;;;;5014712;28;20085;-89
2021/01/29 00:24:41;;;;;;;21.60;12.82;;;1.20;99.90;;;;;;5014552;28;20144;-89
2021/01/29 00:27:07;;;;;;;28.90;14.65;;;1.30;99.90;;;;;;5014748;28;20096;-89
2021/01/29 00:29:34;;;;;;;26.92;14.90;;;1.30;99.90;;;;;;5015372;28;20050;-89
2021/01/29 00:32:00;;;;;;;19.75;12.68;;;1.30;99.90;;;;;;5014289;28;20502;-89
2021/01/29 00:34:27;;;;;;;21.67;13.82;;;1.40;99.90;;;;;;5015860;28;20046;-89
2021/01/29 00:36:53;;;;;;;28.88;14.98;;;1.40;99.90;;;;;;5014800;28;20081;-89
2021/01/29 00:39:19;;;;;;;28.80;14.68;;;1.40;99.90;;;;;;5015571;28;20088;-89
2021/01/29 00:41:45;;;;;;;22.33;14.15;;;1.30;99.90;;;;;;5015416;28;20120;-89
2021/01/29 00:44:11;;;;;;;21.40;13.50;;;1.30;99.90;;;;;;5015707;28;20471;-89
2021/01/29 00:46:38;;;;;;;20.98;13.18;;;1.40;99.90;;;;;;5015316;28;20128;-89
2021/01/29 00:49:04;;;;;;;21.95;14.38;;;1.40;99.90;;;;;;5015313;28;20038;-89
2021/01/29 00:51:30;;;;;;;24.50;14.93;;;1.50;99.90;;;;;;5015535;28;20104;-89
2021/01/29 00:53:57;;;;;;;19.90;13.20;;;1.50;99.90;;;;;;5018178;28;20140;-90
2021/01/29 00:56:23;;;;;;;22.77;14.23;;;1.50;99.90;;;;;;5019476;28;20104;-89
2021/01/29 00:58:49;;;;;;;23.67;15.38;;;1.50;99.90;;;;;;5019435;28;20056;-89
2021/01/29 01:01:15;;;;;;;30.83;17.52;;;1.60;99.90;;;;;;5022049;28;20062;-89
2021/01/29 01:03:42;;;;;;;25.52;15.20;;;1.60;99.90;;;;;;5020380;28;20058;-90
2021/01/29 01:06:13;;;;;;;23.50;14.52;;;1.60;99.90;;;;;;5020074;28;20037;-90
2021/01/29 01:08:39;;;;;;;22.85;14.90;;;1.60;99.90;;;;;;5020129;28;20077;-89
2021/01/29 01:11:05;;;;;;;24.70;15.90;;;1.60;99.90;;;;;;5018412;28;20108;-88
2021/01/29 01:13:38;;;;;;;21.80;14.35;;;1.60;99.90;;;;;;5021906;28;20141;-89
2021/01/29 01:16:05;;;;;;;23.70;15.38;;;1.60;99.90;;;;;;5018750;28;20068;-89
2021/01/29 01:18:32;;;;;;;24.73;14.57;;;1.50;99.90;;;;;;5018058;28;20494;-90
2021/01/29 01:20:58;;;;;;;26.65;16.42;;;1.50;99.90;;;;;;5018979;28;20132;-89
2021/01/29 01:23:24;;;;;;;33.05;16.55;;;1.50;99.90;;;;;;5020586;28;20120;-89
2021/01/29 01:25:50;;;;;;;31.60;16.13;;;1.50;99.90;;;;;;5018897;28;20145;-90
2021/01/29 01:28:17;;;;;;;23.67;14.13;;;1.40;99.90;;;;;;5020620;28;20077;-90
2021/01/29 01:30:43;;;;;;;22.02;13.40;;;1.40;99.90;;;;;;5019769;28;20046;-90
2021/01/29 01:33:09;;;;;;;24.35;13.23;;;1.40;99.90;;;;;;5019435;28;20141;-89
2021/01/29 01:35:36;;;;;;;24.25;13.75;;;1.40;99.90;;;;;;5018641;28;20572;-90
2021/01/29 01:38:04;;;;;;;28.33;14.88;;;1.50;99.90;;;;;;5018722;28;20060;-89
2021/01/29 01:40:34;;;;;;;25.88;14.65;;;1.40;99.90;;;;;;5018387;28;20133;-90
2021/01/29 01:43:01;;;;;;;34.13;15.57;;;1.40;99.90;;;;;;5019206;28;20093;-89
2021/01/29 01:45:27;;;;;;;33.70;15.82;;;1.50;99.90;;;;;;5019093;28;20042;-89
2021/01/29 01:48:08;;;;;;;30.60;15.20;;;1.30;99.90;;;;;;5017436;28;20118;-90
2021/01/29 01:50:43;;;;;;;24.05;13.60;;;1.30;99.90;;;;;;5016668;28;20069;-89
2021/01/29 01:53:20;;;;;;;22.67;14.27;;;1.40;99.90;;;;;;5013228;28;20100;-89
2021/01/29 01:55:50;;;;;;;29.98;14.48;;;1.50;99.90;;;;;;5013227;28;20136;-89
2021/01/29 01:58:16;;;;;;;23.67;14.07;;;1.50;99.90;;;;;;5013481;28;20060;-90
2021/01/29 02:00:43;;;;;;;19.55;12.20;;;1.50;99.90;;;;;;5013027;28;20133;-89
2021/01/29 02:03:24;;;;;;;23.60;14.77;;;1.60;99.90;;;;;;5013922;28;20152;-89
2021/01/29 02:05:51;;;;;;;25.83;15.43;;;1.70;99.90;;;;;;5014005;28;20129;-89
2021/01/29 02:08:17;;;;;;;26.73;15.35;;;1.70;99.90;;;;;;5013988;28;20049;-90
2021/01/29 02:10:45;;;;;;;23.98;14.32;;;1.60;99.90;;;;;;5013277;28;20494;-89
2021/01/29 02:13:11;;;;;;;22.73;14.32;;;1.60;99.90;;;;;;5012796;28;20077;-89
2021/01/29 02:15:41;;;;;;;22.70;14.23;;;1.60;99.90;;;;;;5013862;28;20463;-90
2021/01/29 02:18:39;;;;;;;23.52;14.13;;;1.70;99.90;;;;;;5014058;28;20069;-89
2021/01/29 02:21:24;;;;;;;24.33;14.38;;;1.70;99.90;;;;;;5013503;28;20085;-90
2021/01/29 02:24:25;;;;;;;21.17;13.05;;;1.70;99.90;;;;;;5014436;28;20070;-90
2021/01/29 02:27:22;;;;;;;21.75;13.80;;;1.70;99.90;;;;;;5012920;28;20074;-89
2021/01/29 02:29:50;;;;;;;21.60;13.45;;;1.80;99.90;;;;;;5014402;28;20140;-89
2021/01/29 02:32:47;;;;;;;31.75;16.10;;;1.80;99.90;;;;;;5014406;28;20053;-90
2021/01/29 02:35:51;;;;;;;33.72;15.80;;;1.60;99.90;;;;;;5012960;28;20134;-89
2021/01/29 02:38:50;;;;;;;23.48;13.93;;;1.60;99.90;;;;;;5013069;28;20050;-89
2021/01/29 02:41:51;;;;;;;23.98;13.25;;;1.50;99.90;;;;;;5013521;28;20473;-89
2021/01/29 02:44:56;;;;;;;22.58;12.68;;;1.60;99.90;;;;;;5014044;28;20045;-89
2021/01/29 02:47:29;;;;;;;20.80;13.50;;;1.60;99.90;;;;;;4992524;28;20046;-89
2021/01/29 02:50:14;;;;;;;24.02;13.60;;;1.60;99.90;;;;;;5013299;28;20426;-89
2021/01/29 02:53:18;;;;;;;21.17;12.60;;;1.60;99.90;;;;;;5012312;28;20054;-89
2021/01/29 02:55:55;;;;;;;19.95;12.48;;;1.60;99.90;;;;;;5012562;28;20054;-89
2021/01/29 02:58:52;;;;;;;18.10;12.40;;;1.70;99.90;;;;;;5013656;28;20096;-90
2021/01/29 03:01:45;;;;;;;21.10;12.05;;;1.70;99.90;;;;;;5012582;28;20561;-89
2021/01/29 03:04:27;;;;;;;17.40;11.23;;;1.70;99.90;;;;;;5012482;28;20568;-89
2021/01/29 03:07:01;;;;;;;19.83;11.52;;;1.70;99.90;;;;;;5012605;28;20093;-89
2021/01/29 03:09:42;;;;;;;17.60;11.38;;;1.70;99.90;;;;;;5012889;28;20481;-89
2021/01/29 03:12:19;;;;;;;17.00;10.82;;;1.70;99.90;;;;;;5012415;28;20203;-90
2021/01/29 03:15:03;;;;;;;19.88;11.57;;;1.70;99.90;;;;;;5012628;28;20137;-89
2021/01/29 03:17:41;;;;;;;24.38;13.13;;;1.70;99.90;;;;;;5016112;28;20093;-90
2021/01/29 03:20:21;;;;;;;15.65;10.50;;;1.70;99.90;;;;;;5017128;28;20160;-90
2021/01/29 03:22:59;;;;;;;16.27;9.45;;;1.70;99.90;;;;;;5015841;28;20049;-89
2021/01/29 03:25:32;;;;;;;12.57;9.02;;;1.70;99.90;;;;;;5016206;28;20136;-90
2021/01/29 03:28:12;;;;;;;11.77;8.85;;;1.60;99.90;;;;;;5016018;28;20493;-90
2021/01/29 03:30:45;;;;;;;14.07;8.95;;;1.60;99.90;;;;;;5015812;28;20041;-90
2021/01/29 03:33:14;;;;;;;12.02;8.30;;;1.70;99.90;;;;;;5025699;28;20061;-90
2021/01/29 03:35:46;;;;;;;11.68;8.48;;;1.60;99.90;;;;;;5019182;28;20132;-90
2021/01/29 03:38:28;;;;;;;11.05;8.35;;;1.60;99.90;;;;;;5015615;28;20081;-90
2021/01/29 03:41:28;;;;;;;11.23;8.05;;;1.60;99.90;;;;;;5020695;28;20105;-90
2021/01/29 03:44:02;;;;;;;9.63;7.45;;;1.50;99.90;;;;;;5026697;28;20050;-90
2021/01/29 03:46:36;;;;;;;13.32;8.45;;;1.30;99.90;;;;;;5026690;28;20041;-90
2021/01/29 03:49:21;;;;;;;15.85;9.63;;;1.30;99.90;;;;;;5018957;28;20066;-90
2021/01/29 03:52:07;;;;;;;21.92;11.68;;;1.30;99.90;;;;;;5015147;28;20082;-90
2021/01/29 03:54:50;;;;;;;20.70;12.23;;;1.30;99.90;;;;;;5016408;28;20045;-90
2021/01/29 03:57:29;;;;;;;23.00;12.70;;;1.50;99.90;;;;;;5016215;28;20092;-90
2021/01/29 04:00:14;;;;;;;27.88;13.88;;;1.40;99.90;;;;;;5015421;28;20076;-90
2021/01/29 04:02:50;;;;;;;26.48;14.60;;;1.30;99.90;;;;;;5015084;28;20133;-90
2021/01/29 04:05:29;;;;;;;25.67;13.23;;;1.20;99.90;;;;;;5015924;28;20053;-90
2021/01/29 04:08:06;;;;;;;25.17;13.18;;;1.30;99.90;;;;;;5015124;28;20058;-90
2021/01/29 04:10:34;;;;;;;27.50;14.18;;;1.40;99.90;;;;;;5015221;28;20089;-90
2021/01/29 04:13:12;;;;;;;25.27;13.77;;;1.40;99.90;;;;;;5015799;28;20487;-90
2021/01/29 04:15:52;;;;;;;28.88;13.98;;;1.40;99.90;;;;;;5014964;28;20498;-91
2021/01/29 04:18:52;;;;;;;27.67;14.27;;;1.30;99.90;;;;;;5016101;28;20050;-90
2021/01/29 04:21:27;;;;;;;25.08;13.93;;;1.40;99.90;;;;;;5004350;28;20046;-90
2021/01/29 04:24:04;;;;;;;26.65;14.63;;;1.40;99.90;;;;;;5015686;28;20475;-90
2021/01/29 04:26:38;;;;;;;25.58;13.65;;;1.50;99.90;;;;;;5014887;28;20136;-90
2021/01/29 04:29:11;;;;;;;23.00;13.25;;;1.50;99.90;;;;;;5013684;28;20138;-90
2021/01/29 04:31:39;;;;;;;23.98;12.60;;;1.60;99.90;;;;;;5014799;28;20097;-90
2021/01/29 04:34:11;;;;;;;23.65;12.23;;;1.50;99.90;;;;;;5015620;28;20050;-90
2021/01/29 04:36:40;;;;;;;23.02;11.88;;;1.50;99.90;;;;;;5015118;28;20125;-90
2021/01/29 04:39:21;;;;;;;28.75;17.20;;;1.50;99.90;;;;;;5016419;28;20084;-90
2021/01/29 04:42:02;;;;;;;5.38;4.53;;;1.60;99.90;;;;;;5015145;28;20134;-90
2021/01/29 04:44:42;;;;;;;5.72;4.20;;;1.60;99.90;;;;;;5014516;28;20050;-90
2021/01/29 04:47:18;;;;;;;6.13;3.42;;;1.60;99.90;;;;;;5015428;28;20081;-90
2021/01/29 04:50:18;;;;;;;7.68;5.10;;;1.60;99.90;;;;;;5014324;28;20053;-90
2021/01/29 04:53:06;;;;;;;15.63;5.13;;;1.70;99.90;;;;;;5014758;28;20064;-90
2021/01/29 04:55:44;;;;;;;12.57;6.93;;;1.70;99.90;;;;;;5014903;28;20113;-90
2021/01/29 04:58:16;;;;;;;4.50;4.07;;;1.70;99.90;;;;;;5015548;28;20122;-90
2021/01/29 05:01:01;;;;;;;4.38;3.65;;;1.70;99.90;;;;;;5015390;28;20049;-90
2021/01/29 05:03:37;;;;;;;23.75;11.50;;;1.80;99.90;;;;;;5014596;28;20085;-90
2021/01/29 05:06:38;;;;;;;26.77;13.48;;;1.70;99.90;;;;;;5015970;28;20137;-90
2021/01/29 05:09:42;;;;;;;30.90;15.20;;;1.80;99.90;;;;;;5013924;28;20073;-90
2021/01/29 05:12:34;;;;;;;30.23;14.70;;;1.90;99.90;;;;;;5013834;28;20081;-90
2021/01/29 05:15:07;;;;;;;27.30;13.60;;;1.90;99.90;;;;;;5014766;28;20089;-90
2021/01/29 05:18:17;;;;;;;34.45;14.95;;;1.90;99.90;;;;;;5013915;28;20141;-90
2021/01/29 05:20:57;;;;;;;20.73;11.85;;;1.80;99.90;;;;;;5014560;28;20462;-90
2021/01/29 05:23:45;;;;;;;18.85;11.02;;;1.90;99.90;;;;;;5013681;28;20130;-90
2021/01/29 05:26:36;;;;;;;24.45;12.18;;;2.00;99.90;;;;;;5014783;28;20125;-90
2021/01/29 05:29:30;;;;;;;18.83;10.55;;;2.00;99.90;;;;;;5014167;28;20138;-90
2021/01/29 05:32:09;;;;;;;20.88;11.80;;;1.90;99.90;;;;;;5014939;28;20901;-89
2021/01/29 05:34:45;;;;;;;20.38;11.70;;;1.90;99.90;;;;;;5014962;28;20046;-90
2021/01/29 05:37:40;;;;;;;21.08;12.30;;;1.90;99.90;;;;;;5014286;28;20054;-90
2021/01/29 05:40:46;;;;;;;22.65;12.38;;;1.90;99.90;;;;;;5013394;28;20049;-90
2021/01/29 05:43:24;;;;;;;20.73;12.18;;;1.90;99.90;;;;;;5013677;28;20081;-90
2021/01/29 05:45:53;;;;;;;24.05;11.38;;;1.90;99.90;;;;;;5013461;28;20136;-90
2021/01/29 05:48:40;;;;;;;20.30;10.48;;;1.90;99.90;;;;;;5014453;28;20133;-90
2021/01/29 05:51:43;;;;;;;40.58;13.98;;;1.90;99.90;;;;;;5013353;28;20487;-91
2021/01/29 05:54:30;;;;;;;5.88;4.38;;;1.80;99.90;;;;;;5014614;28;20057;-91
2021/01/29 05:57:27;;;;;;;14.30;7.55;;;1.90;99.90;;;;;;5013387;28;20641;-90
2021/01/29 06:00:06;;;;;;;23.98;9.32;;;1.90;99.90;;;;;;5014657;28;20108;-90
2021/01/29 06:03:06;;;;;;;18.35;8.73;;;1.80;99.90;;;;;;5012644;28;20073;-90
2021/01/29 06:05:47;;;;;;;21.52;8.82;;;1.70;99.90;;;;;;5013396;28;20046;-90
2021/01/29 06:08:25;;;;;;;22.73;9.43;;;1.70;99.90;;;;;;5013297;28;20463;-90
2021/01/29 06:11:27;;;;;;;197.43;87.78;;;1.70;99.90;;;;;;5013246;28;20494;-91
2021/01/29 06:14:52;;;;;;;85.40;44.70;;;1.70;99.90;;;;;;5012907;28;20105;-90
2021/01/29 06:17:27;;;;;;;100.32;49.75;;;1.80;99.90;;;;;;5013936;28;20144;-90
2021/01/29 06:20:36;;;;;;;117.05;57.78;;;1.80;99.90;;;;;;5013876;28;20435;-90
2021/01/29 06:23:17;;;;;;;48.97;25.50;;;1.70;99.90;;;;;;5014196;28;20130;-90
2021/01/29 06:26:02;;;;;;;20.63;10.55;;;1.70;99.90;;;;;;5013285;28;20058;-90
2021/01/29 06:29:04;;;;;;;23.15;10.45;;;1.80;99.90;;;;;;5013834;28;20132;-90
2021/01/29 06:32:07;;;;;;;20.63;9.10;;;1.90;99.90;;;;;;5012339;28;20077;-90
2021/01/29 06:34:48;;;;;;;28.52;13.85;;;2.00;99.90;;;;;;5013725;28;20045;-90
2021/01/29 06:37:36;;;;;;;24.20;9.20;;;2.10;99.90;;;;;;5013974;28;20133;-90
2021/01/29 06:40:14;;;;;;;12.15;6.60;;;2.20;99.90;;;;;;5012929;28;20487;-90
2021/01/29 06:43:12;;;;;;;16.50;6.50;;;2.10;99.90;;;;;;5012477;28;20053;-90
2021/01/29 06:45:57;;;;;;;8.93;5.47;;;2.20;99.90;;;;;;5013947;28;20060;-90
2021/01/29 06:48:35;;;;;;;9.68;4.55;;;2.20;99.90;;;;;;5013637;28;20046;-90
2021/01/29 06:51:38;;;;;;;8.95;4.90;;;2.20;99.90;;;;;;5011601;28;20089;-90
2021/01/29 06:54:43;;;;;;;4.05;3.65;;;2.20;99.90;;;;;;4997847;28;20046;-90
2021/01/29 06:57:37;;;;;;;8.60;4.55;;;2.30;99.90;;;;;;4996270;28;20074;-90
2021/01/29 07:00:29;;;;;;;7.53;5.00;;;2.30;99.90;;;;;;4997660;28;20141;-90
2021/01/29 07:03:22;;;;;;;7.47;5.33;;;2.40;99.90;;;;;;4996720;28;20053;-89
2021/01/29 07:06:01;;;;;;;10.65;6.95;;;2.30;99.90;;;;;;4997513;28;20414;-89
2021/01/29 07:08:46;;;;;;;19.83;8.90;;;2.20;99.90;;;;;;4996460;28;20132;-90
2021/01/29 07:11:41;;;;;;;23.48;14.32;;;2.30;99.90;;;;;;4996502;28;20046;-90
2021/01/29 07:14:39;;;;;;;12.93;7.72;;;2.30;99.90;;;;;;4996307;28;20140;-89
2021/01/29 07:17:32;;;;;;;6.32;5.00;;;2.30;99.90;;;;;;4997242;28;20510;-90
2021/01/29 07:20:15;;;;;;;5.97;4.40;;;2.40;99.90;;;;;;4997259;28;20112;-90
2021/01/29 07:22:50;;;;;;;6.88;4.65;;;2.40;99.90;;;;;;4996204;28;20052;-90
2021/01/29 07:25:40;;;;;;;8.70;4.50;;;2.40;99.90;;;;;;4997331;28;20057;-88
2021/01/29 07:28:28;;;;;;;7.07;3.58;;;2.40;99.90;;;;;;4997249;28;20542;-90
2021/01/29 07:31:22;;;;;;;4.75;3.85;;;2.40;99.90;;;;;;4996730;28;20089;-89
2021/01/29 07:34:08;;;;;;;15.90;8.20;;;2.40;99.90;;;;;;4997177;28;20141;-89
2021/01/29 07:37:03;;;;;;;5.28;3.72;;;2.40;99.90;;;;;;4999680;28;20110;-90
2021/01/29 07:39:53;;;;;;;4.82;4.28;;;2.50;99.90;;;;;;4997673;28;20137;-90
2021/01/29 07:42:32;;;;;;;10.65;7.47;;;2.50;99.90;;;;;;4997240;28;20074;-90
2021/01/29 07:45:29;;;;;;;7.60;5.55;;;2.50;99.90;;;;;;4997258;28;20078;-91
2021/01/29 07:48:35;;;;;;;21.23;9.38;;;2.50;99.90;;;;;;4996916;28;20081;-90
2021/01/29 07:51:41;;;;;;;20.80;10.32;;;2.50;99.90;;;;;;4996581;28;20053;-89
2021/01/29 07:54:44;;;;;;;13.73;8.68;;;2.50;99.90;;;;;;4996977;28;20109;-90
2021/01/29 07:57:32;;;;;;;26.10;11.07;;;2.40;99.90;;;;;;4996518;28;20502;-89
2021/01/29 08:00:21;;;;;;;23.58;12.02;;;2.40;99.90;;;;;;4995642;28;20050;-90
2021/01/29 08:03:06;;;;;;;30.95;12.95;;;2.30;99.90;;;;;;4995353;28;20050;-90
2021/01/29 08:06:04;;;;;;;28.88;13.07;;;2.30;99.90;;;;;;4995614;28;20060;-90
2021/01/29 08:08:37;;;;;;;22.00;9.60;;;2.30;99.90;;;;;;4995327;28;20161;-90
2021/01/29 08:11:08;;;;;;;34.28;13.82;;;2.20;99.90;;;;;;4995577;28;20528;-90
2021/01/29 08:13:59;;;;;;;27.50;12.00;;;2.10;99.90;;;;;;4996154;28;20082;-90
2021/01/29 08:17:11;;;;;;;17.45;9.30;;;2.20;99.90;;;;;;4995613;28;20512;-89
2021/01/29 08:20:26;;;;;;;10.25;6.72;;;2.30;99.90;;;;;;5004000;28;20514;-89
2021/01/29 08:23:00;;;;;;;9.30;5.22;;;2.40;99.90;;;;;;4995908;28;20064;-90
2021/01/29 08:25:51;;;;;;;5.10;4.50;;;2.30;99.90;;;;;;4995365;28;20089;-89
2021/01/29 08:28:43;;;;;;;12.25;5.25;;;2.50;99.90;;;;;;4994834;28;20042;-90
2021/01/29 08:31:33;;;;;;;14.38;6.88;;;2.50;99.90;;;;;;4995909;28;20135;-89
2021/01/29 08:34:30;;;;;;;15.00;7.35;;;2.50;99.90;;;;;;4995783;28;20046;-88
2021/01/29 08:37:32;;;;;;;14.73;7.82;;;2.40;99.90;;;;;;4995762;28;20085;-89
2021/01/29 08:40:14;;;;;;;18.00;10.98;;;2.50;99.90;;;;;;4994951;28;20141;-89
2021/01/29 08:42:57;;;;;;;24.10;12.10;;;2.50;99.90;;;;;;4995100;28;20105;-89
2021/01/29 08:45:42;;;;;;;32.08;16.42;;;2.60;99.90;;;;;;4995090;28;20078;-89
2021/01/29 08:48:23;;;;;;;22.75;13.23;;;2.50;99.90;;;;;;4994762;28;20046;-89
2021/01/29 08:51:21;;;;;;;21.83;12.60;;;2.60;99.90;;;;;;4995208;28;20109;-90
2021/01/29 08:54:06;;;;;;;24.25;13.70;;;2.70;99.90;;;;;;4998860;28;20077;-90
2021/01/29 08:56:55;;;;;;;36.00;18.65;;;2.80;99.90;;;;;;4994761;28;20053;-90
2021/01/29 08:59:26;;;;;;;33.90;18.00;;;2.90;99.90;;;;;;4995041;28;20108;-90
2021/01/29 09:02:08;;;;;;;36.20;17.13;;;2.90;99.90;;;;;;4994075;28;20074;-90
2021/01/29 09:04:49;;;;;;;29.35;16.05;;;3.10;99.90;;;;;;4995266;28;20491;-90
2021/01/29 09:07:23;;;;;;;12.77;8.82;;;3.10;99.90;;;;;;4995309;28;20409;-91
2021/01/29 09:09:51;;;;;;;12.98;8.15;;;3.20;99.90;;;;;;4995025;28;20517;-90
2021/01/29 09:12:25;;;;;;;8.98;7.10;;;3.20;99.90;;;;;;4995930;28;20594;-90
2021/01/29 09:15:21;;;;;;;6.72;5.95;;;3.20;99.90;;;;;;4995936;28;20082;-90
2021/01/29 09:18:16;;;;;;;7.20;6.20;;;3.20;99.90;;;;;;4995025;28;20086;-90
2021/01/29 09:20:45;;;;;;;;;;;3.30;99.90;;;;;;4995461;28;20046;-90
2021/01/29 09:23:23;;;;;;;5.85;3.75;;;3.40;99.90;;;;;;4995103;28;19925;-89
2021/01/29 09:25:59;;;;;;;9.00;6.60;;;3.50;99.90;;;;;;4995229;28;20479;-90
2021/01/29 09:28:34;;;;;;;9.07;7.28;;;3.60;99.90;;;;;;4993777;28;20141;-90
2021/01/29 09:31:18;;;;;;;8.73;6.35;;;3.60;99.90;;;;;;4994515;28;20180;-90
2021/01/29 09:34:08;;;;;;;10.20;8.65;;;3.50;99.90;;;;;;4994608;28;20487;-90
2021/01/29 09:37:01;;;;;;;12.98;8.40;;;3.50;99.90;;;;;;4994775;28;20046;-90
2021/01/29 09:39:54;;;;;;;11.82;6.60;;;3.60;99.90;;;;;;4994788;28;20062;-90
2021/01/29 09:42:54;;;;;;;5.38;3.80;;;3.60;99.90;;;;;;4994736;28;20513;-90
2021/01/29 09:45:24;;;;;;;4.28;3.30;;;3.60;99.90;;;;;;4994188;28;20055;-90
2021/01/29 09:47:58;;;;;;;3.60;3.30;;;3.60;99.90;;;;;;4994781;28;20504;-90
2021/01/29 09:50:25;;;;;;;4.40;3.75;;;3.60;99.90;;;;;;4993796;28;20049;-90
2021/01/29 09:53:23;;;;;;;8.60;6.45;;;3.60;99.90;;;;;;4993535;28;20554;-90
2021/01/29 09:56:07;;;;;;;6.35;3.70;;;3.60;99.90;;;;;;4993856;28;20145;-90
2021/01/29 09:58:42;;;;;;;5.20;4.50;;;3.60;99.90;;;;;;4993633;28;20055;-89
2021/01/29 10:01:16;;;;;;;4.28;3.30;;;3.60;99.90;;;;;;4994590;28;20473;-91
2021/01/29 10:04:08;;;;;;;5.82;4.18;;;3.70;99.90;;;;;;4993610;28;20138;-89
2021/01/29 10:07:04;;;;;;;6.75;4.80;;;3.70;99.90;;;;;;4993453;28;20418;-90
2021/01/29 10:09:39;;;;;;;12.15;7.38;;;3.60;99.90;;;;;;4995868;28;20554;-89
2021/01/29 10:12:17;;;;;;;11.27;7.18;;;3.70;99.90;;;;;;4993866;28;20069;-89
2021/01/29 10:14:56;;;;;;;5.90;4.75;;;3.80;99.90;;;;;;4993350;28;20046;-90
2021/01/29 10:18:06;;;;;;;5.57;4.43;;;3.90;99.90;;;;;;4994228;28;20499;-89
2021/01/29 10:20:35;;;;;;;3.30;3.10;;;3.90;99.90;;;;;;4994575;28;20050;-89
2021/01/29 10:23:19;;;;;;;5.25;4.47;;;3.90;99.90;;;;;;4993954;28;20396;-90
2021/01/29 10:26:17;;;;;;;3.55;3.28;;;4.00;99.90;;;;;;4994921;28;20138;-90
2021/01/29 10:29:08;;;;;;;4.43;4.03;;;4.00;99.90;;;;;;4998013;28;20137;-86
2021/01/29 10:32:03;;;;;;;4.68;3.60;;;3.90;99.90;;;;;;4997093;28;20054;-90
2021/01/29 10:34:48;;;;;;;2.83;2.65;;;3.80;99.90;;;;;;4997129;28;20046;-89
2021/01/29 10:37:45;;;;;;;2.97;2.78;;;3.80;99.90;;;;;;4997288;28;20046;-89
2021/01/29 10:40:25;;;;;;;4.50;4.10;;;3.80;99.90;;;;;;4997030;28;20046;-91
2021/01/29 10:42:59;;;;;;;4.50;4.10;;;3.80;99.90;;;;;;4997895;28;20465;-90
2021/01/29 10:46:04;;;;;;;4.38;4.07;;;3.70;99.90;;;;;;4997058;28;20078;-90
2021/01/29 10:48:40;;;;;;;6.80;5.95;;;3.80;99.90;;;;;;5010052;28;20065;-90
2021/01/29 10:51:37;;;;;;;4.97;3.90;;;3.80;99.90;;;;;;4996577;28;20042;-90
2021/01/29 10:54:06;;;;;;;6.10;4.57;;;3.90;99.90;;;;;;4997144;28;20097;-90
2021/01/29 10:57:02;;;;;;;4.18;3.63;;;3.90;99.90;;;;;;4997838;28;20077;-90
2021/01/29 10:59:45;;;;;;;3.95;3.58;;;4.10;99.90;;;;;;4996810;28;20086;-91
2021/01/29 11:02:20;;;;;;;5.25;4.68;;;4.20;99.90;;;;;;4996799;28;20057;-90
2021/01/29 11:04:52;;;;;;;10.98;6.63;;;4.30;99.90;;;;;;4997213;28;20552;-90
2021/01/29 11:07:25;;;;;;;36.42;22.60;;;4.30;99.90;;;;;;5012895;28;20054;-89
2021/01/29 11:09:59;;;;;;;138.57;78.72;;;4.20;99.90;;;;;;4996992;28;20116;-89
2021/01/29 11:12:55;;;;;;;132.38;69.30;;;4.00;99.90;;;;;;4997106;28;20129;-89
2021/01/29 11:15:35;;;;;;;256.17;133.23;;;3.90;99.90;;;;;;5000473;28;20077;-90
2021/01/29 11:18:18;;;;;;;57.03;30.50;;;3.90;99.90;;;;;;5013733;28;20050;-90
2021/01/29 11:20:45;;;;;;;110.63;56.42;;;3.90;99.90;;;;;;4996160;28;20097;-89
2021/01/29 11:23:17;;;;;;;12.15;7.72;;;4.00;99.90;;;;;;4996473;28;20050;-89
2021/01/29 11:25:54;;;;;;;19.85;10.40;;;4.10;99.90;;;;;;4999584;28;20121;-90
2021/01/29 11:28:52;;;;;;;16.45;11.15;;;4.30;99.90;;;;;;4999458;28;20104;-90
2021/01/29 11:31:31;;;;;;;11.90;8.50;;;4.30;99.90;;;;;;5011234;28;20088;-90
2021/01/29 11:33:59;;;;;;;13.90;9.82;;;4.30;99.90;;;;;;5015393;28;20403;-90
2021/01/29 11:36:37;;;;;;;17.73;11.32;;;4.40;99.90;;;;;;5015371;28;20478;-90
2021/01/29 11:39:18;;;;;;;21.75;11.55;;;4.50;99.90;;;;;;5015976;28;20582;-90
2021/01/29 11:42:07;;;;;;;19.25;10.80;;;4.60;99.90;;;;;;5014431;28;20486;-90
2021/01/29 11:44:54;;;;;;;19.85;10.63;;;4.50;99.90;;;;;;5015448;28;20088;-90
2021/01/29 11:47:32;;;;;;;12.07;8.70;;;4.40;99.90;;;;;;5016656;28;20053;-89
2021/01/29 11:50:32;;;;;;;21.50;11.88;;;4.50;99.90;;;;;;5015395;28;20560;-89
2021/01/29 11:53:07;;;;;;;19.38;10.10;;;4.30;99.90;;;;;;5014786;28;20137;-89
2021/01/29 11:55:46;;;;;;;21.20;11.75;;;4.40;99.90;;;;;;5015992;28;20156;-89
2021/01/29 11:58:19;;;;;;;16.90;11.35;;;4.40;99.90;;;;;;5013798;28;20049;-90
2021/01/29 12:01:17;;;;;;;18.17;10.30;;;4.40;99.90;;;;;;5015226;28;20073;-89
2021/01/29 12:04:12;;;;;;;16.13;9.18;;;4.50;99.90;;;;;;5015076;28;20062;-90
2021/01/29 12:07:03;;;;;;;12.80;8.73;;;4.70;99.90;;;;;;5009945;28;20058;-90
2021/01/29 12:09:48;;;;;;;4.70;4.30;;;5.00;99.90;;;;;;5016271;28;20049;-90
2021/01/29 12:12:35;;;;;;;3.97;3.67;;;5.20;99.90;;;;;;5015440;28;20140;-90
2021/01/29 12:15:12;;;;;;;6.97;4.68;;;5.40;99.90;;;;;;5015070;28;20141;-90
2021/01/29 12:17:40;;;;;;;6.50;4.68;;;5.60;99.90;;;;;;5014528;28;20120;-90
2021/01/29 12:20:30;;;;;;;8.15;4.60;;;5.70;99.90;;;;;;5015367;28;20054;-91
2021/01/29 12:23:27;;;;;;;4.22;3.13;;;5.70;99.90;;;;;;5014884;28;20050;-89
2021/01/29 12:26:31;;;;;;;2.72;2.50;;;5.80;99.90;;;;;;5015538;28;20061;-90
2021/01/29 12:29:11;;;;;;;4.18;2.55;;;5.90;99.90;;;;;;5014101;28;20157;-90
2021/01/29 12:31:44;;;;;;;18.45;13.20;;;5.90;99.90;;;;;;5015180;28;20108;-90
2021/01/29 12:34:23;;;;;;;8.73;4.28;;;5.90;99.90;;;;;;5015512;28;20060;-89
2021/01/29 12:37:00;;;;;;;16.05;8.75;;;6.00;99.90;;;;;;5014147;28;20046;-89
2021/01/29 12:39:34;;;;;;;191.68;97.30;;;5.90;99.90;;;;;;5014565;28;20140;-90
2021/01/29 12:42:12;;;;;;;104.35;43.25;;;5.90;99.90;;;;;;5017880;28;20109;-90
2021/01/29 12:44:53;;;;;;;52.17;25.50;;;6.00;99.90;;;;;;5031237;28;20050;-90
2021/01/29 12:47:38;;;;;;;144.55;59.70;;;5.90;99.90;;;;;;5015401;28;20049;-90
2021/01/29 12:50:52;;;;;;;61.05;25.42;;;5.80;99.90;;;;;;5013096;28;20486;-90
2021/01/29 12:53:36;;;;;;;171.90;77.60;;;5.90;99.90;;;;;;5013918;28;20089;-91
2021/01/29 12:56:09;;;;;;;42.58;20.17;;;5.90;99.90;;;;;;5016027;28;20069;-90
2021/01/29 12:58:53;;;;;;;99.43;45.23;;;5.80;99.90;;;;;;5014616;28;20052;-91
2021/01/29 13:01:39;;;;;;;8.15;4.43;;;5.90;99.90;;;;;;5014031;28;20144;-90
2021/01/29 13:04:32;;;;;;;6.22;2.90;;;6.00;99.90;;;;;;5014505;28;20060;-91
2021/01/29 13:07:19;;;;;;;6.82;2.53;;;6.10;99.90;;;;;;5017586;28;20050;-91
2021/01/29 13:09:48;;;;;;;7.90;2.55;;;6.20;99.90;;;;;;5014163;28;20104;-90
2021/01/29 13:12:19;;;;;;;2.65;1.10;;;6.30;99.90;;;;;;5013152;28;20084;-90
2021/01/29 13:15:04;;;;;;;5.20;1.77;;;6.40;99.90;;;;;;5014181;28;20054;-90
2021/01/29 13:17:40;;;;;;;10.82;2.15;;;6.40;99.90;;;;;;5013224;28;20081;-91
2021/01/29 13:20:22;;;;;;;11.98;2.13;;;6.60;99.90;;;;;;5013231;28;20112;-91
2021/01/29 13:22:52;;;;;;;5.25;1.80;;;6.70;99.90;;;;;;5012516;28;20050;-91
2021/01/29 13:25:23;;;;;;;7.18;2.30;;;6.80;99.90;;;;;;5014538;28;20046;-91
2021/01/29 13:28:14;;;;;;;5.88;1.98;;;6.90;99.90;;;;;;5014384;28;20046;-91
2021/01/29 13:30:43;;;;;;;7.38;1.75;;;7.00;99.90;;;;;;5014267;28;20487;-91
2021/01/29 13:33:17;;;;;;;8.30;2.38;;;7.00;99.90;;;;;;5013178;28;20050;-91
2021/01/29 13:35:48;;;;;;;9.70;2.65;;;7.00;99.90;;;;;;5012975;28;20077;-91
2021/01/29 13:38:33;;;;;;;10.93;3.42;;;7.10;99.90;;;;;;5013803;28;20141;-92
2021/01/29 13:41:13;;;;;;;9.23;2.75;;;7.10;99.90;;;;;;5013779;28;20054;-91
2021/01/29 13:43:42;;;;;;;19.50;4.68;;;7.10;99.90;;;;;;5012823;28;20137;-92
2021/01/29 13:46:40;;;;;;;17.55;5.57;;;7.10;99.90;;;;;;5013807;28;20439;-92
2021/01/29 13:49:25;;;;;;;14.10;4.20;;;7.10;99.90;;;;;;5013452;28;20065;-91
2021/01/29 13:51:52;;;;;;;24.40;6.30;;;7.10;99.90;;;;;;5013905;28;20138;-91
2021/01/29 13:54:36;;;;;;;18.73;5.55;;;7.10;99.90;;;;;;5012995;28;20082;-91
2021/01/29 13:57:29;;;;;;;21.45;6.82;;;7.10;99.90;;;;;;5014396;28;20085;-92